RYR1SH EINN-EGPH
Flight info
| Callsign | RYR1SH |
|---|---|
| Flight time | N/A |
| Altitude | 35000 |
| Route | AGINI3A AGINI DCT ROTEV DCT GOTNA DCT BLACA/N0380F250 P600 TUNSO |
| Aircraft | B738/M-SDE2E3FGHIRWXY/LB1 |
Departure
| Time | 2026-05-08 14:19 |
|---|---|
| Airport | Shannon Airport (EINN) |
Arrival
| Time | N/A |
|---|---|
| Airport | Edinburgh Airport (EGPH) |
| Time | Latitude | Longitude | Altitude | Speed | Heading |
|---|---|---|---|---|---|
| 2026-05-08 13:55 | 52.69373 | -8.92055 | 21 ft | 0 kts | 185° |
| 2026-05-08 14:12 | 52.69385 | -8.92053 | 25 ft | 4 kts | 185° |
| 2026-05-08 14:13 | 52.69412 | -8.92047 | 22 ft | 4 kts | 193° |
| 2026-05-08 14:13 | 52.69432 | -8.92038 | 24 ft | 4 kts | 202° |
| 2026-05-08 14:13 | 52.69454 | -8.92016 | 24 ft | 4 kts | 234° |
| 2026-05-08 14:13 | 52.69462 | -8.91978 | 21 ft | 3 kts | 279° |
| 2026-05-08 14:14 | 52.69461 | -8.91971 | 24 ft | 0 kts | 283° |
| 2026-05-08 14:16 | 52.69461 | -8.91973 | 21 ft | 1 kts | 283° |
| 2026-05-08 14:16 | 52.69470 | -8.92036 | 21 ft | 8 kts | 284° |
| 2026-05-08 14:16 | 52.69491 | -8.92158 | 23 ft | 14 kts | 289° |
| 2026-05-08 14:17 | 52.69536 | -8.92324 | 23 ft | 17 kts | 302° |
| 2026-05-08 14:17 | 52.69620 | -8.92473 | 21 ft | 20 kts | 315° |
| 2026-05-08 14:17 | 52.69726 | -8.92645 | 22 ft | 23 kts | 316° |
| 2026-05-08 14:17 | 52.69838 | -8.92826 | 23 ft | 22 kts | 315° |
| 2026-05-08 14:18 | 52.69924 | -8.92975 | 37 ft | 7 kts | 299° |
| 2026-05-08 14:18 | 52.69961 | -8.92993 | 35 ft | 7 kts | 40° |
| 2026-05-08 14:18 | 52.69974 | -8.92966 | 37 ft | 15 kts | 51° |
| 2026-05-08 14:18 | 52.70210 | -8.92467 | 32 ft | 93 kts | 52° |
| 2026-05-08 14:19 | 52.70741 | -8.91336 | 60 ft | 150 kts | 52° |
| 2026-05-08 14:19 | 52.71374 | -8.89912 | 759 ft | 155 kts | 53° |
| 2026-05-08 14:19 | 52.72159 | -8.88733 | 1549 ft | 156 kts | 25° |
| 2026-05-08 14:19 | 52.73160 | -8.88101 | 2481 ft | 153 kts | 22° |
| 2026-05-08 14:20 | 52.74144 | -8.87452 | 3331 ft | 156 kts | 24° |
| 2026-05-08 14:20 | 52.75249 | -8.86703 | 3657 ft | 188 kts | 23° |
| 2026-05-08 14:20 | 52.76545 | -8.85816 | 3883 ft | 216 kts | 23° |
| 2026-05-08 14:20 | 52.77983 | -8.84823 | 4151 ft | 240 kts | 24° |
| 2026-05-08 14:21 | 52.79584 | -8.83707 | 4791 ft | 254 kts | 24° |
| 2026-05-08 14:21 | 52.81238 | -8.82549 | 5679 ft | 261 kts | 24° |
| 2026-05-08 14:21 | 52.82929 | -8.81357 | 6582 ft | 267 kts | 24° |
| 2026-05-08 14:21 | 52.84657 | -8.80135 | 7424 ft | 273 kts | 24° |
| 2026-05-08 14:22 | 52.86415 | -8.78886 | 8241 ft | 278 kts | 24° |
| 2026-05-08 14:22 | 52.88208 | -8.77609 | 9065 ft | 283 kts | 25° |
| 2026-05-08 14:22 | 52.90043 | -8.76300 | 9874 ft | 290 kts | 25° |
| 2026-05-08 14:22 | 52.91890 | -8.74980 | 10536 ft | 300 kts | 25° |
| 2026-05-08 14:23 | 52.93894 | -8.73544 | 10754 ft | 326 kts | 24° |
| 2026-05-08 14:23 | 52.96020 | -8.72019 | 11328 ft | 337 kts | 24° |
| 2026-05-08 14:23 | 52.98172 | -8.70476 | 12195 ft | 340 kts | 23° |
| 2026-05-08 14:23 | 53.00367 | -8.68900 | 12920 ft | 347 kts | 23° |
| 2026-05-08 14:24 | 53.02601 | -8.67292 | 13769 ft | 352 kts | 23° |
| 2026-05-08 14:24 | 53.04859 | -8.65665 | 14539 ft | 357 kts | 23° |
| 2026-05-08 14:24 | 53.07154 | -8.64010 | 15318 ft | 362 kts | 23° |
| 2026-05-08 14:24 | 53.09473 | -8.62337 | 16129 ft | 366 kts | 22° |
| 2026-05-08 14:25 | 53.11794 | -8.60659 | 16891 ft | 371 kts | 22° |
| 2026-05-08 14:25 | 53.14166 | -8.58892 | 17679 ft | 376 kts | 27° |
| 2026-05-08 14:25 | 53.16220 | -8.56162 | 18395 ft | 382 kts | 50° |
| 2026-05-08 14:25 | 53.17720 | -8.52496 | 19078 ft | 386 kts | 59° |
| 2026-05-08 14:26 | 53.19121 | -8.48637 | 19684 ft | 392 kts | 60° |
| 2026-05-08 14:26 | 53.20520 | -8.44693 | 20277 ft | 398 kts | 60° |
| 2026-05-08 14:26 | 53.21939 | -8.40678 | 20896 ft | 404 kts | 60° |
| 2026-05-08 14:26 | 53.23361 | -8.36672 | 21516 ft | 409 kts | 60° |
| 2026-05-08 14:27 | 53.24847 | -8.32508 | 21600 ft | 410 kts | 63° |
| 2026-05-08 14:27 | 53.26243 | -8.28632 | 23172 ft | 385 kts | 59° |
| 2026-05-08 14:27 | 53.27613 | -8.24830 | 24712 ft | 384 kts | 60° |
| 2026-05-08 14:27 | 53.29018 | -8.20915 | 24787 ft | 403 kts | 60° |
| 2026-05-08 14:28 | 53.30487 | -8.16815 | 24911 ft | 419 kts | 60° |
| 2026-05-08 14:28 | 53.32015 | -8.12548 | 25029 ft | 435 kts | 60° |
| 2026-05-08 14:28 | 53.33590 | -8.08149 | 25267 ft | 446 kts | 60° |
| 2026-05-08 14:28 | 53.35196 | -8.03657 | 25723 ft | 451 kts | 60° |
| 2026-05-08 14:29 | 53.36804 | -7.99158 | 26334 ft | 451 kts | 60° |
| 2026-05-08 14:29 | 53.38390 | -7.94714 | 26988 ft | 449 kts | 60° |
| 2026-05-08 14:29 | 53.39988 | -7.90226 | 27642 ft | 448 kts | 60° |
| 2026-05-08 14:29 | 53.41584 | -7.85737 | 28269 ft | 448 kts | 61° |
| 2026-05-08 14:30 | 53.43176 | -7.81248 | 28855 ft | 449 kts | 61° |
| 2026-05-08 14:30 | 53.44776 | -7.76725 | 29096 ft | 455 kts | 61° |
| 2026-05-08 14:30 | 53.46394 | -7.72144 | 29070 ft | 455 kts | 60° |
| 2026-05-08 14:31 | 53.49586 | -7.63086 | 29086 ft | 448 kts | 60° |
| 2026-05-08 14:31 | 53.52737 | -7.54109 | 29092 ft | 451 kts | 61° |
| 2026-05-08 14:32 | 53.57513 | -7.40439 | 29088 ft | 452 kts | 61° |
| 2026-05-08 14:32 | 53.60690 | -7.31303 | 29076 ft | 452 kts | 61° |
| 2026-05-08 14:33 | 53.63835 | -7.22229 | 29079 ft | 450 kts | 61° |
| 2026-05-08 14:33 | 53.66976 | -7.13130 | 29074 ft | 449 kts | 61° |
| 2026-05-08 14:34 | 53.70102 | -7.04041 | 29081 ft | 447 kts | 61° |
| 2026-05-08 14:34 | 53.73215 | -6.94958 | 29079 ft | 447 kts | 61° |
| 2026-05-08 14:35 | 53.74245 | -6.91947 | 29081 ft | 447 kts | 61° |